Time;durP1;ratioP1;P1;durP2;ratioP2;P2;SDS_P1;SDS_P2;PMS_P1;PMS_P2;Temp;Humidity;BMP_temperature;BMP_pressure;BME280_temperature;BME280_humidity;BME280_pressure;Samples;Min_cycle;Max_cycle;Signal;HPM_P1;HPM_P2
2020/12/16 00:02:12;;;;;;;8.23;4.82;;;;;;;20.51;45.82;99900.25;4991769;28;20492;-76
2020/12/16 00:04:37;;;;;;;6.22;3.88;;;;;;;20.50;45.92;99907.31;4992151;28;20035;-77
2020/12/16 00:07:03;;;;;;;5.28;3.83;;;;;;;20.49;45.91;99902.94;4993936;28;20391;-75
2020/12/16 00:09:28;;;;;;;6.60;3.85;;;;;;;20.48;45.94;99900.34;5002245;28;20035;-76
2020/12/16 00:11:53;;;;;;;5.97;3.70;;;;;;;20.48;45.94;99903.84;4991462;28;20050;-80
2020/12/16 00:14:19;;;;;;;6.00;4.10;;;;;;;20.50;45.96;99909.94;4992880;28;20070;-74
2020/12/16 00:16:44;;;;;;;4.82;3.67;;;;;;;20.51;46.06;99914.31;5005948;28;20036;-75
2020/12/16 00:19:09;;;;;;;6.13;3.80;;;;;;;20.50;46.03;99911.69;4997364;28;20045;-76
2020/12/16 00:21:35;;;;;;;5.35;3.63;;;;;;;20.53;45.87;99914.25;4992876;28;20038;-78
2020/12/16 00:24:00;;;;;;;5.35;3.65;;;;;;;20.52;45.95;99909.88;5002938;28;20113;-75
2020/12/16 00:26:26;;;;;;;5.50;3.53;;;;;;;20.53;45.67;99906.34;5005429;28;20042;-77
2020/12/16 00:28:51;;;;;;;4.97;3.47;;;;;;;20.52;45.92;99900.22;4991788;28;20554;-77
2020/12/16 00:31:17;;;;;;;6.68;3.85;;;;;;;20.52;45.92;99902.88;4992184;28;20121;-75
2020/12/16 00:33:42;;;;;;;4.65;3.15;;;;;;;20.50;46.01;99893.25;4992397;28;20049;-77
2020/12/16 00:36:08;;;;;;;5.00;3.35;;;;;;;20.49;45.80;99895.06;4992697;28;20066;-75
2020/12/16 00:38:33;;;;;;;4.72;3.15;;;;;;;20.51;45.75;99890.59;4990864;28;20035;-77
2020/12/16 00:40:59;;;;;;;6.53;3.65;;;;;;;20.51;45.79;99895.00;5001611;28;20045;-76
2020/12/16 00:43:24;;;;;;;5.40;3.15;;;;;;;20.51;45.87;99902.88;5011023;28;20084;-78
2020/12/16 00:45:50;;;;;;;4.95;3.25;;;;;;;20.48;46.04;99895.94;5010424;28;20038;-77
2020/12/16 00:48:15;;;;;;;5.10;3.60;;;;;;;20.49;45.84;99891.53;5011228;28;20049;-79
2020/12/16 00:50:40;;;;;;;4.70;3.20;;;;;;;20.50;45.61;99877.47;5005213;28;20035;-77
2020/12/16 00:53:06;;;;;;;5.13;3.38;;;;;;;20.49;45.97;99881.00;4992810;28;20049;-78
2020/12/16 00:55:32;;;;;;;3.65;2.80;;;;;;;20.48;45.88;99879.28;4992371;28;20459;-75
2020/12/16 00:57:58;;;;;;;4.78;3.42;;;;;;;20.49;45.96;99888.91;5011818;28;20034;-76
2020/12/16 01:00:23;;;;;;;4.85;3.25;;;;;;;20.50;45.90;99888.00;5010627;28;20056;-78
2020/12/16 01:02:50;;;;;;;4.78;3.08;;;;;;;20.49;45.83;99896.81;5011692;28;20108;-77
2020/12/16 01:05:18;;;;;;;5.40;3.42;;;;;;;20.47;45.96;99893.38;5010562;28;20483;-76
2020/12/16 01:07:44;;;;;;;5.00;3.25;;;;;;;20.48;45.76;99895.06;5001956;28;20066;-76
2020/12/16 01:10:13;;;;;;;5.53;3.60;;;;;;;20.48;45.95;99900.34;4994410;28;20034;-78
2020/12/16 01:12:40;;;;;;;4.28;2.90;;;;;;;20.47;45.77;99898.63;5011724;28;20048;-80
2020/12/16 01:15:17;;;;;;;4.72;3.17;;;;;;;20.46;45.89;99902.19;5010312;28;20034;-77
2020/12/16 01:17:44;;;;;;;4.53;3.20;;;;;;;20.45;45.92;99906.56;4994779;28;20046;-77
2020/12/16 01:20:10;;;;;;;5.25;3.40;;;;;;;20.45;45.90;99896.03;4994504;28;20069;-75
2020/12/16 01:22:41;;;;;;;3.72;2.88;;;;;;;20.45;45.63;99901.28;4995472;28;20080;-78
2020/12/16 01:25:07;;;;;;;5.95;3.75;;;;;;;20.45;45.93;99906.56;5014688;28;20034;-74
2020/12/16 01:27:33;;;;;;;4.20;3.03;;;;;;;20.46;45.77;99910.06;4999588;28;20047;-75
2020/12/16 01:29:59;;;;;;;3.67;2.80;;;;;;;20.46;45.84;99910.06;4995714;28;20041;-77
2020/12/16 01:32:25;;;;;;;6.13;3.55;;;;;;;20.44;45.51;99907.47;4995589;28;20478;-76
2020/12/16 01:34:51;;;;;;;4.40;2.83;;;;;;;20.45;45.86;99916.22;4995795;28;20039;-74
2020/12/16 01:37:16;;;;;;;4.07;2.92;;;;;;;20.44;45.87;99906.63;4995202;28;20092;-75
2020/12/16 01:39:42;;;;;;;3.65;2.65;;;;;;;20.45;45.88;99917.09;4995564;28;20415;-75
2020/12/16 01:42:07;;;;;;;4.15;3.15;;;;;;;20.44;45.75;99919.78;5012653;28;20048;-77
2020/12/16 01:44:33;;;;;;;4.43;3.10;;;;;;;20.45;45.65;99914.44;4996016;28;20050;-77
2020/12/16 01:47:00;;;;;;;4.30;2.95;;;;;;;20.44;45.91;99911.88;5010236;28;20038;-77
2020/12/16 01:49:26;;;;;;;4.70;3.20;;;;;;;20.44;45.84;99917.13;4994256;28;20035;-75
2020/12/16 01:52:01;;;;;;;5.25;3.13;;;;;;;20.43;45.68;99908.38;4994971;28;20045;-77
2020/12/16 01:54:29;;;;;;;3.65;2.58;;;;;;;20.44;45.97;99906.63;4994284;28;20976;-75
2020/12/16 01:56:56;;;;;;;4.95;3.20;;;;;;;20.43;45.72;99905.72;4995247;28;20120;-80
2020/12/16 01:59:22;;;;;;;3.67;2.70;;;;;;;20.44;45.78;99899.56;4997123;28;20027;-78
2020/12/16 02:01:51;;;;;;;4.32;3.10;;;;;;;20.44;45.71;99901.34;5014624;28;20038;-78
2020/12/16 02:04:19;;;;;;;4.70;2.80;;;;;;;20.41;45.86;99902.28;5014681;28;20045;-80
2020/12/16 02:06:45;;;;;;;3.47;2.65;;;;;;;20.43;45.77;99902.25;5012842;28;20041;-75
2020/12/16 02:09:11;;;;;;;4.03;2.78;;;;;;;20.43;45.75;99897.00;4993981;28;20435;-77
2020/12/16 02:11:39;;;;;;;3.72;2.97;;;;;;;20.41;45.73;99902.28;4994900;28;20038;-76
2020/12/16 02:14:08;;;;;;;4.15;3.13;;;;;;;20.43;45.66;99894.34;4995136;28;20105;-76
2020/12/16 02:16:35;;;;;;;5.18;2.78;;;;;;;20.42;45.89;99895.25;5007746;28;20490;-78
2020/12/16 02:19:01;;;;;;;3.60;2.58;;;;;;;20.41;45.68;99897.00;5012992;28;20068;-78
2020/12/16 02:21:27;;;;;;;4.18;2.70;;;;;;;20.42;45.62;99901.38;5014044;28;20076;-78
2020/12/16 02:24:05;;;;;;;3.83;2.78;;;;;;;20.39;45.80;99889.16;5003517;28;20084;-77
2020/12/16 02:26:36;;;;;;;4.38;2.78;;;;;;;20.39;45.64;99888.31;4993360;28;20038;-80
2020/12/16 02:29:02;;;;;;;3.55;2.35;;;;;;;20.39;45.73;99886.53;5008877;28;20035;-77
2020/12/16 02:31:29;;;;;;;3.50;2.58;;;;;;;20.41;45.69;99889.13;4993437;28;20034;-78
2020/12/16 02:33:56;;;;;;;3.38;2.50;;;;;;;20.39;45.77;99893.59;4993037;28;20109;-77
2020/12/16 02:36:21;;;;;;;3.90;2.72;;;;;;;20.37;45.84;99898.88;4993235;28;20109;-78
2020/12/16 02:38:48;;;;;;;3.30;2.35;;;;;;;20.38;45.76;99905.88;5009477;28;20480;-77
2020/12/16 02:41:13;;;;;;;4.00;2.60;;;;;;;20.41;45.63;99911.94;5005366;28;20049;-77
2020/12/16 02:43:39;;;;;;;4.43;2.67;;;;;;;20.39;45.69;99910.22;5013878;28;20037;-81
2020/12/16 02:46:05;;;;;;;4.05;2.22;;;;;;;20.41;45.52;99893.53;4998763;28;20038;-77
2020/12/16 02:48:30;;;;;;;3.50;2.35;;;;;;;20.38;45.85;99897.13;4993906;28;20498;-80
2020/12/16 02:50:56;;;;;;;4.40;2.30;;;;;;;20.39;45.54;99894.44;4993728;28;20182;-78
2020/12/16 02:53:22;;;;;;;3.55;2.30;;;;;;;20.38;45.71;99905.00;4994423;28;20920;-79
2020/12/16 02:55:47;;;;;;;3.33;2.33;;;;;;;20.38;45.67;99902.38;4994057;28;20046;-77
2020/12/16 02:58:12;;;;;;;3.47;2.38;;;;;;;20.38;45.75;99910.28;4994098;28;20113;-77
2020/12/16 03:00:38;;;;;;;4.03;2.75;;;;;;;20.39;45.50;99906.75;4993908;28;20038;-78
2020/12/16 03:03:03;;;;;;;3.58;2.53;;;;;;;20.38;45.47;99905.00;4993813;28;20034;-78
2020/12/16 03:05:28;;;;;;;3.50;2.22;;;;;;;20.40;45.62;99903.19;4993686;28;20046;-78
2020/12/16 03:07:54;;;;;;;3.35;2.20;;;;;;;20.39;45.61;99891.81;5001115;28;20030;-78
2020/12/16 03:10:19;;;;;;;2.53;1.90;;;;;;;20.40;45.49;99892.66;5004497;28;20037;-81
2020/12/16 03:12:45;;;;;;;3.33;2.33;;;;;;;20.40;45.40;99900.53;5012716;28;20030;-77
2020/12/16 03:15:10;;;;;;;3.85;2.30;;;;;;;20.39;45.49;99896.22;5005829;28;20450;-75
2020/12/16 03:17:36;;;;;;;3.28;2.30;;;;;;;20.39;45.57;99894.44;4992028;28;20550;-75
2020/12/16 03:20:01;;;;;;;3.55;2.15;;;;;;;20.41;45.75;99888.25;4993337;28;20043;-79
2020/12/16 03:22:28;;;;;;;2.20;1.70;;;;;;;20.42;45.54;99888.22;4993446;28;20675;-79
2020/12/16 03:24:54;;;;;;;3.17;1.92;;;;;;;20.41;45.55;99889.13;5009287;28;20097;-77
2020/12/16 03:27:19;;;;;;;2.33;1.95;;;;;;;20.40;45.54;99892.66;5000488;28;20030;-78
2020/12/16 03:29:45;;;;;;;3.85;1.92;;;;;;;20.41;45.40;99890.91;4993734;28;20173;-78
2020/12/16 03:32:10;;;;;;;3.20;1.98;;;;;;;20.41;45.72;99888.25;5001445;28;20069;-79
2020/12/16 03:34:36;;;;;;;2.55;2.00;;;;;;;20.41;45.69;99886.47;5008282;28;20034;-77
2020/12/16 03:37:02;;;;;;;3.05;2.00;;;;;;;20.41;45.62;99888.25;4993422;28;20030;-79
2020/12/16 03:39:27;;;;;;;2.60;1.67;;;;;;;20.40;45.73;99884.75;4992690;28;20051;-77
2020/12/16 03:41:53;;;;;;;3.85;1.77;;;;;;;20.41;45.61;99890.91;4991416;28;20030;-79
2020/12/16 03:44:18;;;;;;;2.72;1.80;;;;;;;20.41;45.49;99901.44;4992985;28;20049;-78
2020/12/16 03:46:44;;;;;;;3.17;1.95;;;;;;;20.41;45.60;99904.06;4991543;28;20411;-76
2020/12/16 03:49:10;;;;;;;2.47;1.95;;;;;;;20.42;45.68;99898.75;4993083;28;20031;-77
2020/12/16 03:51:35;;;;;;;2.67;1.63;;;;;;;20.38;45.61;99905.00;4991771;28;20038;-74
2020/12/16 03:54:01;;;;;;;1.95;1.60;;;;;;;20.38;45.61;99905.00;4993194;28;20034;-81
2020/12/16 03:56:26;;;;;;;3.45;1.85;;;;;;;20.39;45.54;99910.22;4991822;28;20049;-75
2020/12/16 03:58:52;;;;;;;3.30;1.65;;;;;;;20.39;45.36;99912.00;4993002;28;20030;-78
2020/12/16 04:01:19;;;;;;;2.35;1.85;;;;;;;20.37;45.64;99911.19;4998854;28;20062;-76
2020/12/16 04:03:45;;;;;;;2.28;1.77;;;;;;;20.37;45.54;99909.41;5009711;28;20073;-77
2020/12/16 04:06:12;;;;;;;4.05;1.83;;;;;;;20.38;45.71;99911.13;4989916;28;20438;-76
2020/12/16 04:08:39;;;;;;;1.88;1.48;;;;;;;20.36;45.52;99910.28;4993387;28;20038;-77
2020/12/16 04:11:14;;;;;;;2.35;1.60;;;;;;;20.36;45.37;99910.28;5007792;28;20040;-79
2020/12/16 04:13:40;;;;;;;1.77;1.40;;;;;;;20.37;45.51;99909.41;4992655;28;20108;-79
2020/12/16 04:16:10;;;;;;;2.80;1.77;;;;;;;20.36;45.51;99912.09;5000139;28;20054;-79
2020/12/16 04:18:36;;;;;;;2.70;1.50;;;;;;;20.36;45.63;99907.66;5012135;28;20383;-75
2020/12/16 04:21:06;;;;;;;2.67;1.80;;;;;;;20.36;45.62;99901.56;5012133;28;20041;-76
2020/12/16 04:23:32;;;;;;;3.65;1.63;;;;;;;20.36;45.39;99905.03;5004327;28;20069;-77
2020/12/16 04:25:58;;;;;;;2.42;1.63;;;;;;;20.34;45.08;99904.22;5002489;28;20498;-79
2020/12/16 04:28:23;;;;;;;2.35;1.70;;;;;;;20.34;45.58;99903.34;5010791;28;20100;-79
2020/12/16 04:30:49;;;;;;;1.60;1.30;;;;;;;20.33;45.50;99906.91;4993953;28;20137;-79
2020/12/16 04:33:14;;;;;;;2.22;1.55;;;;;;;20.36;45.43;99909.44;5011958;28;20076;-78
2020/12/16 04:35:39;;;;;;;2.92;1.75;;;;;;;20.35;45.44;99915.63;5010843;28;20026;-77
2020/12/16 04:38:05;;;;;;;2.78;1.63;;;;;;;20.36;45.36;99920.81;5012312;28;20030;-79
2020/12/16 04:40:30;;;;;;;2.22;1.50;;;;;;;20.35;45.33;99908.56;5010816;28;20033;-79
2020/12/16 04:43:07;;;;;;;1.92;1.50;;;;;;;20.32;45.47;99911.28;5010623;28;20070;-76
2020/12/16 04:45:36;;;;;;;2.80;1.60;;;;;;;20.33;45.32;99905.09;5010144;28;20041;-77
2020/12/16 04:48:07;;;;;;;2.15;1.42;;;;;;;20.34;45.69;99916.53;5011941;28;20461;-78
2020/12/16 04:50:32;;;;;;;2.67;1.48;;;;;;;20.35;45.49;99910.34;5008093;28;20581;-77
2020/12/16 04:53:06;;;;;;;1.65;1.23;;;;;;;20.35;45.45;99918.25;5011450;28;20043;-77
2020/12/16 04:55:32;;;;;;;;;;;;;;;20.29;45.33;99908.75;4995655;28;20483;-79
2020/12/16 04:58:00;;;;;;;2.30;1.40;;;;;;;20.34;45.51;99904.22;4996190;28;19936;-78
2020/12/16 05:00:26;;;;;;;2.13;1.42;;;;;;;20.34;45.39;99904.22;4995793;28;20113;-78
2020/12/16 05:02:54;;;;;;;2.45;1.63;;;;;;;20.35;45.26;99908.56;4994486;28;20034;-76
2020/12/16 05:05:20;;;;;;;1.75;1.38;;;;;;;20.35;45.42;99908.56;5014564;28;20038;-78
2020/12/16 05:07:48;;;;;;;1.75;1.45;;;;;;;20.35;45.29;99911.19;5007287;28;20038;-78
2020/12/16 05:10:35;;;;;;;3.38;1.60;;;;;;;20.31;45.51;99911.31;4994683;28;20039;-80
2020/12/16 05:13:07;;;;;;;3.00;1.60;;;;;;;20.32;45.46;99920.94;4995892;28;20034;-76
2020/12/16 05:15:34;;;;;;;1.65;1.30;;;;;;;20.32;45.29;99919.16;4994076;28;20059;-75
2020/12/16 05:18:13;;;;;;;2.47;1.88;;;;;;;20.31;45.45;99920.09;4994675;28;20039;-78
2020/12/16 05:20:42;;;;;;;2.33;1.52;;;;;;;20.33;44.82;99917.41;4995234;28;20039;-76
2020/12/16 05:23:08;;;;;;;2.75;1.65;;;;;;;20.34;45.40;99916.53;5001041;28;20084;-77
2020/12/16 05:25:34;;;;;;;2.08;1.48;;;;;;;20.34;45.51;99917.38;5014197;28;20383;-76
2020/12/16 05:28:01;;;;;;;2.33;1.48;;;;;;;20.32;45.21;99924.44;4994865;28;20061;-77
2020/12/16 05:30:26;;;;;;;3.08;1.40;;;;;;;20.34;45.21;99929.66;4995641;28;20403;-79
2020/12/16 05:32:53;;;;;;;2.15;1.40;;;;;;;20.32;45.24;99919.16;5009691;28;20027;-79
2020/12/16 05:35:23;;;;;;;2.00;1.40;;;;;;;20.32;45.38;99910.44;4995649;28;20026;-77
2020/12/16 05:37:49;;;;;;;2.05;1.33;;;;;;;20.35;45.38;99923.50;4995614;28;20069;-77
2020/12/16 05:40:17;;;;;;;2.60;1.77;;;;;;;20.31;45.28;99920.09;4998695;28;20050;-77
2020/12/16 05:42:47;;;;;;;2.85;1.50;;;;;;;20.33;45.24;99923.53;5014846;28;20514;-77
2020/12/16 05:45:21;;;;;;;2.92;1.45;;;;;;;20.33;45.24;99930.56;5013932;28;20077;-76
2020/12/16 05:47:56;;;;;;;2.90;1.52;;;;;;;20.31;45.18;99919.22;5014866;28;20505;-77
2020/12/16 05:50:22;;;;;;;1.90;1.20;;;;;;;20.33;45.08;99913.00;5012644;28;20402;-78
2020/12/16 05:52:47;;;;;;;2.25;1.17;;;;;;;20.32;45.34;99932.31;4995649;28;20046;-74
2020/12/16 05:55:33;;;;;;;3.30;1.65;;;;;;;20.30;45.14;99921.00;4995345;28;20030;-76
2020/12/16 05:58:10;;;;;;;1.42;1.10;;;;;;;20.30;45.01;99928.91;4994675;28;20049;-78
2020/12/16 06:00:52;;;;;;;2.13;1.40;;;;;;;20.29;45.43;99932.44;4995487;28;20045;-79
2020/12/16 06:03:26;;;;;;;2.47;1.48;;;;;;;20.30;45.19;99930.66;4992922;28;20037;-79
2020/12/16 06:05:58;;;;;;;1.83;1.25;;;;;;;20.29;45.11;99932.44;4995263;28;20027;-75
2020/12/16 06:08:28;;;;;;;2.40;1.40;;;;;;;20.29;45.24;99927.16;5022578;28;20036;-79
2020/12/16 06:10:54;;;;;;;4.10;1.85;;;;;;;20.30;45.09;99928.03;5033376;28;20037;-80
2020/12/16 06:13:23;;;;;;;1.63;1.20;;;;;;;20.31;45.28;99929.75;5033081;28;20533;-76
2020/12/16 06:15:53;;;;;;;2.20;1.10;;;;;;;20.28;45.11;99929.81;5025347;28;20038;-74
2020/12/16 06:18:21;;;;;;;3.42;1.58;;;;;;;20.29;45.32;99932.44;5013838;28;20409;-74
2020/12/16 06:20:47;;;;;;;2.08;1.23;;;;;;;20.29;45.20;99937.69;5014421;28;20049;-78
2020/12/16 06:23:31;;;;;;;1.90;1.33;;;;;;;20.29;45.20;99942.97;5014497;28;20041;-79
2020/12/16 06:26:00;;;;;;;2.50;1.58;;;;;;;20.29;45.26;99936.81;5010957;28;20034;-76
2020/12/16 06:28:26;;;;;;;2.92;1.13;;;;;;;20.29;45.17;99931.56;4994718;28;20146;-78
2020/12/16 06:31:11;;;;;;;3.20;1.20;;;;;;;20.28;45.21;99941.22;5024741;28;20091;-79
2020/12/16 06:33:50;;;;;;;3.17;1.23;;;;;;;20.31;45.03;99940.28;5017376;28;20034;-79
2020/12/16 06:36:17;;;;;;;3.30;1.35;;;;;;;20.31;45.12;99948.16;4981784;28;20084;-78
2020/12/16 06:38:48;;;;;;;7.70;1.92;;;;;;;20.32;45.34;99942.84;5002136;28;20030;-80
2020/12/16 06:41:33;;;;;;;13.60;7.07;;;;;;;20.41;45.09;99940.91;5002427;28;20042;-78
2020/12/16 06:44:11;;;;;;;84.25;75.35;;;;;;;20.48;45.26;99942.44;4991835;28;20038;-78
2020/12/16 06:46:42;;;;;;;52.53;46.90;;;;;;;20.50;45.18;99943.28;4988947;28;20034;-74
2020/12/16 06:49:22;;;;;;;46.20;38.75;;;;;;;20.50;45.15;99943.28;4993291;28;20515;-72
2020/12/16 06:51:51;;;;;;;39.55;34.35;;;;;;;20.48;45.30;99959.13;4994521;28;20037;-75
2020/12/16 06:54:18;;;;;;;35.83;31.27;;;;;;;20.47;45.07;99946.00;4992074;28;20038;-75
2020/12/16 06:56:45;;;;;;;32.33;28.88;;;;;;;20.45;45.24;99947.81;4993550;28;20031;-75
2020/12/16 06:59:33;;;;;;;31.48;28.10;;;;;;;20.45;45.19;99958.34;4994066;28;20062;-78
2020/12/16 07:02:26;;;;;;;31.55;27.92;;;;;;;20.42;45.24;99951.38;4993693;28;20438;-76
2020/12/16 07:04:52;;;;;;;30.35;25.90;;;;;;;20.45;45.27;99953.09;4987574;28;20158;-73
2020/12/16 07:07:40;;;;;;;27.88;24.98;;;;;;;20.43;45.14;99949.63;4993939;28;20070;-75
2020/12/16 07:10:33;;;;;;;31.25;25.83;;;;;;;20.46;45.27;99942.50;4993216;28;20093;-76
2020/12/16 07:13:28;;;;;;;30.00;24.30;;;;;;;20.44;45.31;99931.16;4993579;28;20047;-73
2020/12/16 07:15:58;;;;;;;33.90;23.20;;;;;;;20.46;45.14;99928.50;5000913;28;20042;-73
2020/12/16 07:18:29;;;;;;;28.30;21.42;;;;;;;20.47;45.16;99936.34;5012849;28;20113;-76
2020/12/16 07:21:22;;;;;;;37.05;22.30;;;;;;;20.48;45.23;99938.06;5013035;28;20034;-78
2020/12/16 07:23:55;;;;;;;26.95;19.58;;;;;;;20.49;45.49;99928.38;5002802;28;20511;-74
2020/12/16 07:26:29;;;;;;;27.77;20.15;;;;;;;20.47;45.39;99927.59;4995739;28;20061;-74
2020/12/16 07:28:55;;;;;;;29.77;19.35;;;;;;;20.48;45.19;99926.66;4992963;28;20503;-73
2020/12/16 07:31:21;;;;;;;21.50;16.88;;;;;;;20.51;45.22;99930.09;4991313;28;20060;-75
2020/12/16 07:33:47;;;;;;;23.23;17.88;;;;;;;20.47;45.03;99920.53;4993423;28;20069;-76
2020/12/16 07:36:19;;;;;;;31.13;17.17;;;;;;;20.50;45.14;99924.84;4994064;28;20511;-77
2020/12/16 07:38:52;;;;;;;25.65;15.85;;;;;;;20.52;45.02;99930.94;5009892;28;20044;-78
2020/12/16 07:41:23;;;;;;;29.35;16.75;;;;;;;20.51;44.87;99921.31;5001559;28;20034;-74
2020/12/16 07:43:48;;;;;;;24.73;15.45;;;;;;;20.49;44.97;99921.38;4992998;28;20030;-73
2020/12/16 07:46:17;;;;;;;35.88;15.70;;;;;;;20.50;44.89;99911.69;4993275;28;20085;-74
2020/12/16 07:48:44;;;;;;;19.92;14.35;;;;;;;20.49;45.12;99921.38;4993352;28;20030;-74
2020/12/16 07:51:09;;;;;;;33.70;14.75;;;;;;;20.52;45.21;99925.69;4993426;28;20093;-73
2020/12/16 07:53:35;;;;;;;26.02;14.00;;;;;;;20.48;44.99;99917.00;4993342;28;20046;-78
2020/12/16 07:56:03;;;;;;;19.00;13.35;;;;;;;20.54;45.08;99918.59;4993309;28;20065;-76
2020/12/16 07:58:30;;;;;;;18.77;13.32;;;;;;;20.56;45.07;99918.56;4993480;28;20772;-75
2020/12/16 08:01:27;;;;;;;19.98;12.20;;;;;;;20.51;45.23;99923.94;4993303;28;20487;-73
2020/12/16 08:03:53;;;;;;;19.10;12.20;;;;;;;20.56;45.34;99918.56;4988606;28;20514;-77
2020/12/16 08:06:18;;;;;;;16.10;12.27;;;;;;;20.55;45.13;99922.97;4993204;28;20062;-77
2020/12/16 08:08:48;;;;;;;16.77;11.13;;;;;;;20.56;45.15;99924.69;4992868;28;20403;-79
2020/12/16 08:11:22;;;;;;;17.83;11.70;;;;;;;20.58;45.23;99922.00;4993046;28;20044;-74
2020/12/16 08:13:48;;;;;;;18.33;10.85;;;;;;;20.65;45.17;99919.16;4992707;28;20062;-76
2020/12/16 08:16:15;;;;;;;19.42;10.77;;;;;;;20.82;44.73;99918.75;5002701;28;20510;-73
2020/12/16 08:18:45;;;;;;;17.65;10.32;;;;;;;20.93;44.70;99921.06;5011821;28;20026;-78
2020/12/16 08:21:22;;;;;;;13.93;10.70;;;;;;;21.30;44.13;99913.84;4996474;28;20039;-76
2020/12/16 08:23:51;;;;;;;14.93;9.68;;;;;;;21.47;43.68;99915.94;5002910;28;20029;-73
2020/12/16 08:26:17;;;;;;;13.98;9.82;;;;;;;21.46;43.77;99919.50;4998654;28;20434;-76
2020/12/16 08:28:43;;;;;;;12.77;10.23;;;;;;;21.29;44.07;99930.56;5031865;28;20123;-74
2020/12/16 08:31:09;;;;;;;18.33;9.63;;;;;;;21.35;43.78;99924.25;5031704;28;20040;-79
2020/12/16 08:33:37;;;;;;;17.33;9.73;;;;;;;21.52;43.54;99921.94;5031572;28;20037;-73
2020/12/16 08:36:09;;;;;;;11.93;8.90;;;;;;;21.71;43.28;99918.78;5031690;28;20521;-73
2020/12/16 08:38:44;;;;;;;14.27;8.60;;;;;;;21.91;43.04;99928.66;5030332;28;20053;-75
2020/12/16 08:41:12;;;;;;;12.93;8.88;;;;;;;22.10;42.47;99920.97;5021362;28;20044;-74
2020/12/16 08:43:40;;;;;;;10.30;7.75;;;;;;;22.21;42.31;99918.00;5011321;28;20037;-78
2020/12/16 08:46:18;;;;;;;10.52;7.68;;;;;;;22.42;42.24;99916.41;5011610;28;20502;-79
2020/12/16 08:48:46;;;;;;;14.10;8.48;;;;;;;22.63;41.58;99916.56;5011682;28;20057;-73
2020/12/16 08:51:24;;;;;;;10.45;6.55;;;;;;;22.67;41.50;99918.16;5011699;28;20073;-77
2020/12/16 08:53:52;;;;;;;8.98;6.85;;;;;;;22.75;41.38;99925.81;5011956;28;20118;-73
2020/12/16 08:56:43;;;;;;;10.02;7.43;;;;;;;22.56;42.11;99915.06;5010703;28;20041;-73
2020/12/16 08:59:16;;;;;;;9.48;6.90;;;;;;;22.66;41.79;99914.66;5010624;28;20040;-74
2020/12/16 09:01:46;;;;;;;8.00;5.82;;;;;;;22.84;41.52;99914.91;5011751;28;20040;-79
2020/12/16 09:04:34;;;;;;;8.77;5.95;;;;;;;23.00;41.39;99916.97;5011542;28;20120;-75
2020/12/16 09:07:06;;;;;;;6.40;5.25;;;;;;;23.10;40.94;99919.22;5010127;28;20042;-78
2020/12/16 09:09:51;;;;;;;9.35;6.25;;;;;;;23.22;40.99;99920.56;4994156;28;20026;-73
2020/12/16 09:12:19;;;;;;;8.10;5.75;;;;;;;23.26;40.69;99919.53;5011441;28;20034;-74
2020/12/16 09:14:54;;;;;;;7.65;5.43;;;;;;;23.46;40.58;99906.44;5011966;28;20513;-75
2020/12/16 09:17:25;;;;;;;7.60;5.97;;;;;;;23.93;39.96;99908.91;4992343;28;20038;-78
2020/12/16 09:19:51;;;;;;;10.73;5.40;;;;;;;23.59;40.10;99915.59;4990557;28;20403;-79
2020/12/16 09:22:22;;;;;;;9.63;5.07;;;;;;;23.30;40.87;99912.31;4990324;28;20034;-79
2020/12/16 09:24:47;;;;;;;9.88;4.90;;;;;;;23.18;41.06;99913.66;4990671;28;20030;-78
2020/12/16 09:27:13;;;;;;;6.05;4.75;;;;;;;23.08;41.25;99905.22;5004026;28;20465;-73
2020/12/16 09:29:47;;;;;;;6.57;4.40;;;;;;;23.02;41.71;99905.44;5011536;28;20105;-73
2020/12/16 09:32:20;;;;;;;5.43;4.15;;;;;;;22.97;41.59;99920.59;5011205;28;20057;-76
2020/12/16 09:34:48;;;;;;;6.85;5.00;;;;;;;22.86;42.10;99920.13;5010031;28;20041;-78
2020/12/16 09:37:25;;;;;;;8.63;5.05;;;;;;;22.77;42.13;99914.28;5004982;28;20035;-76
2020/12/16 09:40:08;;;;;;;4.93;4.28;;;;;;;22.68;42.43;99914.59;4995462;28;20026;-74
2020/12/16 09:42:34;;;;;;;4.35;3.45;;;;;;;22.62;42.35;99920.97;4995305;28;20053;-72
2020/12/16 09:45:09;;;;;;;7.90;4.28;;;;;;;22.56;42.68;99926.50;4995112;28;20506;-76
2020/12/16 09:47:42;;;;;;;5.85;3.60;;;;;;;22.54;42.69;99930.09;4994935;28;20490;-76
2020/12/16 09:50:07;;;;;;;7.32;4.15;;;;;;;22.50;42.75;99932.81;5010298;28;20035;-77
2020/12/16 09:52:38;;;;;;;5.72;3.65;;;;;;;22.45;42.93;99928.63;4997880;28;20056;-74
2020/12/16 09:55:20;;;;;;;7.85;3.40;;;;;;;22.39;42.97;99929.69;5010035;28;20038;-75
2020/12/16 09:58:06;;;;;;;8.85;3.08;;;;;;;22.36;43.05;99925.38;4998317;28;20065;-75
2020/12/16 10:00:33;;;;;;;6.22;3.55;;;;;;;22.35;43.04;99928.94;5013460;28;20037;-76
2020/12/16 10:03:06;;;;;;;9.38;3.58;;;;;;;22.35;42.96;99935.97;5013078;28;20033;-76
2020/12/16 10:05:33;;;;;;;6.53;3.50;;;;;;;22.34;42.71;99931.63;5014442;28;20461;-80
2020/12/16 10:07:58;;;;;;;6.85;3.38;;;;;;;22.27;43.09;99925.69;5013939;28;20080;-75
2020/12/16 10:10:23;;;;;;;5.45;3.22;;;;;;;22.23;43.05;99923.19;5019900;28;20061;-75
2020/12/16 10:12:49;;;;;;;4.88;3.28;;;;;;;22.12;43.04;99924.44;5031678;28;20384;-75
2020/12/16 10:15:15;;;;;;;14.68;3.50;;;;;;;22.05;43.50;99929.06;5031452;28;20084;-79
2020/12/16 10:17:41;;;;;;;7.57;3.22;;;;;;;22.07;43.32;99922.88;5014236;28;20140;-77
2020/12/16 10:20:07;;;;;;;8.00;3.22;;;;;;;22.05;43.35;99923.78;5014018;28;20042;-73
2020/12/16 10:22:33;;;;;;;4.57;3.08;;;;;;;22.02;43.25;99926.53;5014470;28;20343;-77
2020/12/16 10:24:59;;;;;;;8.02;3.35;;;;;;;21.98;43.46;99916.13;5014320;28;20053;-78
2020/12/16 10:27:31;;;;;;;9.05;3.50;;;;;;;21.94;43.34;99912.75;4997638;28;20488;-79
2020/12/16 10:29:59;;;;;;;5.95;3.40;;;;;;;21.91;43.51;99912.84;5013709;28;20081;-73
2020/12/16 10:32:26;;;;;;;15.25;3.35;;;;;;;21.88;43.56;99912.94;5028924;28;20038;-75
2020/12/16 10:34:53;;;;;;;6.38;3.38;;;;;;;21.89;43.32;99910.22;5029792;28;20034;-75
2020/12/16 10:37:22;;;;;;;6.55;3.65;;;;;;;21.93;43.13;99902.22;5014331;28;20029;-77
2020/12/16 10:39:49;;;;;;;9.38;3.30;;;;;;;21.93;43.45;99897.81;5013874;28;20088;-72
2020/12/16 10:42:16;;;;;;;6.55;3.15;;;;;;;21.90;43.34;99896.13;4994744;28;20411;-78
2020/12/16 10:44:42;;;;;;;7.47;3.42;;;;;;;21.86;43.33;99891.88;4994872;28;20034;-77
2020/12/16 10:47:08;;;;;;;6.47;2.90;;;;;;;21.84;43.43;99880.53;4993702;28;20117;-78
2020/12/16 10:49:34;;;;;;;5.80;2.80;;;;;;;21.84;43.31;99869.09;4993785;28;20030;-74
2020/12/16 10:52:11;;;;;;;9.75;3.20;;;;;;;21.79;43.43;99871.03;4993904;28;20173;-71
2020/12/16 10:54:37;;;;;;;9.35;3.22;;;;;;;21.79;43.47;99874.53;4994235;28;20068;-79
2020/12/16 10:57:04;;;;;;;8.10;3.38;;;;;;;21.78;43.43;99882.50;4994147;28;20503;-76
2020/12/16 10:59:29;;;;;;;6.57;2.95;;;;;;;21.74;43.59;99879.97;4993997;28;20041;-75
2020/12/16 11:01:59;;;;;;;12.75;3.75;;;;;;;21.72;43.59;99880.94;4993329;28;20023;-73
2020/12/16 11:04:28;;;;;;;9.43;3.25;;;;;;;21.70;43.55;99878.34;4993572;28;20036;-73
2020/12/16 11:06:54;;;;;;;9.20;3.13;;;;;;;21.70;43.56;99877.47;4992680;28;20034;-77
2020/12/16 11:09:19;;;;;;;8.73;2.63;;;;;;;21.69;43.48;99881.03;4993777;28;20089;-78
2020/12/16 11:11:50;;;;;;;7.10;2.60;;;;;;;21.64;43.54;99872.41;4998228;28;20402;-75
2020/12/16 11:14:16;;;;;;;7.63;3.20;;;;;;;21.65;43.58;99874.97;5008643;28;20038;-75
2020/12/16 11:16:43;;;;;;;6.43;2.80;;;;;;;21.62;43.75;99869.81;4991962;28;20030;-75
2020/12/16 11:19:11;;;;;;;9.60;2.90;;;;;;;21.62;43.68;99875.09;4993447;28;20039;-77
2020/12/16 11:21:38;;;;;;;6.85;3.40;;;;;;;21.61;43.57;99870.72;4994233;28;20073;-73
2020/12/16 11:24:04;;;;;;;7.72;3.25;;;;;;;21.59;43.64;99864.63;4994650;28;20030;-76
2020/12/16 11:26:30;;;;;;;8.52;2.58;;;;;;;21.59;43.79;99856.69;5013378;28;20064;-73
2020/12/16 11:28:56;;;;;;;7.45;2.50;;;;;;;21.60;43.65;99856.66;5034784;28;20513;-75
2020/12/16 11:31:21;;;;;;;7.90;3.47;;;;;;;21.62;43.72;99848.72;5032335;28;20108;-73
2020/12/16 11:33:46;;;;;;;6.40;2.60;;;;;;;21.60;43.67;99840.84;5032433;28;20199;-75
2020/12/16 11:36:12;;;;;;;3.83;2.30;;;;;;;21.58;43.67;99836.53;5032710;28;20029;-76
2020/12/16 11:38:37;;;;;;;6.03;2.20;;;;;;;21.58;43.74;99837.38;5032765;28;20059;-72
2020/12/16 11:41:04;;;;;;;6.55;2.90;;;;;;;21.55;43.79;99836.63;5033103;28;20087;-73